Time;durP1;ratioP1;P1;durP2;ratioP2;P2;SDS_P1;SDS_P2;PMS_P1;PMS_P2;Temp;Humidity;BMP_temperature;BMP_pressure;BME280_temperature;BME280_humidity;BME280_pressure;Samples;Min_cycle;Max_cycle;Signal;HPM_P1;HPM_P2
2023/04/19 00:00:43;;;;;;;32.67;25.70;;;9.90;96.70;;;;;;5094423;28;20207;-71
2023/04/19 00:03:09;;;;;;;35.60;26.80;;;9.90;96.70;;;;;;5094090;28;20255;-71
2023/04/19 00:05:38;;;;;;;33.43;26.13;;;9.90;97.60;;;;;;5094218;28;20196;-72
2023/04/19 00:08:06;;;;;;;36.70;27.60;;;9.90;98.00;;;;;;5094338;28;20254;-72
2023/04/19 00:10:34;;;;;;;33.93;25.53;;;9.90;98.60;;;;;;5094256;28;20203;-71
2023/04/19 00:13:02;;;;;;;31.87;25.83;;;9.80;99.50;;;;;;5094285;28;20619;-72
2023/04/19 00:15:28;;;;;;;32.53;25.53;;;9.80;99.90;;;;;;5093699;28;20172;-71
2023/04/19 00:17:53;;;;;;;33.50;26.63;;;9.80;99.90;;;;;;5075728;28;20168;-72
2023/04/19 00:20:20;;;;;;;33.13;26.20;;;9.80;99.90;;;;;;5093958;28;20206;-72
2023/04/19 00:22:46;;;;;;;31.97;25.80;;;9.80;99.90;;;;;;5094152;28;20176;-72
2023/04/19 00:25:12;;;;;;;36.03;26.43;;;9.70;99.90;;;;;;5093872;28;20160;-71
2023/04/19 00:27:40;;;;;;;32.63;26.40;;;9.70;99.90;;;;;;5094198;28;20255;-72
2023/04/19 00:30:09;;;;;;;34.93;26.47;;;9.70;99.90;;;;;;5092452;28;20212;-71
2023/04/19 00:32:35;;;;;;;37.00;25.87;;;9.60;99.90;;;;;;5092581;28;20175;-71
2023/04/19 00:35:00;;;;;;;30.90;26.07;;;9.60;99.90;;;;;;5093899;28;20202;-72
2023/04/19 00:37:26;;;;;;;36.07;26.90;;;9.60;99.90;;;;;;5093897;28;20168;-71
2023/04/19 00:39:51;;;;;;;31.87;23.10;;;9.60;99.90;;;;;;5093727;28;20623;-71
2023/04/19 00:42:17;;;;;;;35.40;26.93;;;9.60;99.90;;;;;;5093303;28;20273;-71
2023/04/19 00:44:43;;;;;;;33.53;25.93;;;9.60;99.90;;;;;;5093441;28;20176;-71
2023/04/19 00:47:11;;;;;;;35.23;27.13;;;9.50;99.90;;;;;;5093188;28;20168;-71
2023/04/19 00:49:37;;;;;;;35.83;27.13;;;9.50;99.90;;;;;;5093464;28;20171;-71
2023/04/19 00:52:03;;;;;;;34.07;26.97;;;9.50;99.90;;;;;;5093623;28;20172;-71
2023/04/19 00:54:29;;;;;;;36.00;28.80;;;9.50;99.90;;;;;;5093386;28;20512;-72
2023/04/19 00:56:57;;;;;;;34.40;27.37;;;9.50;99.90;;;;;;5093352;28;20612;-72
2023/04/19 00:59:26;;;;;;;37.07;26.97;;;9.40;99.90;;;;;;5092217;28;20225;-71
2023/04/19 01:01:52;;;;;;;37.97;27.30;;;9.40;99.90;;;;;;5092989;28;20175;-71
2023/04/19 01:04:17;;;;;;;34.97;27.90;;;9.40;99.90;;;;;;5093426;28;20164;-71
2023/04/19 01:06:45;;;;;;;32.73;26.30;;;9.40;99.90;;;;;;5091935;28;20630;-71
2023/04/19 01:09:11;;;;;;;32.87;26.47;;;9.40;99.90;;;;;;5093233;28;20599;-71
2023/04/19 01:11:37;;;;;;;34.10;26.20;;;9.40;99.90;;;;;;5092980;28;20212;-71
2023/04/19 01:14:02;;;;;;;35.67;27.27;;;9.30;99.90;;;;;;5093329;28;20164;-71
2023/04/19 01:16:28;;;;;;;36.50;27.47;;;9.40;99.90;;;;;;5091454;28;20180;-70
2023/04/19 01:18:53;;;;;;;34.97;27.43;;;9.30;99.90;;;;;;5092995;28;20180;-70
2023/04/19 01:21:21;;;;;;;35.70;28.20;;;9.30;99.90;;;;;;5091473;28;20631;-71
2023/04/19 01:23:46;;;;;;;32.20;25.33;;;9.30;99.90;;;;;;5093090;28;20160;-71
2023/04/19 01:26:12;;;;;;;33.30;27.10;;;9.20;99.90;;;;;;5092960;28;20233;-71
2023/04/19 01:28:38;;;;;;;35.63;27.37;;;9.20;99.90;;;;;;5092005;28;20619;-71
2023/04/19 01:31:03;;;;;;;35.37;28.20;;;9.10;99.90;;;;;;5092542;28;20203;-71
2023/04/19 01:33:29;;;;;;;36.40;27.80;;;9.10;99.90;;;;;;5093188;28;20196;-71
2023/04/19 01:35:54;;;;;;;37.43;27.20;;;9.10;99.90;;;;;;5092971;28;20717;-71
2023/04/19 01:38:20;;;;;;;37.77;27.80;;;9.00;99.90;;;;;;5093115;28;20160;-71
2023/04/19 01:40:46;;;;;;;37.00;28.03;;;9.00;99.90;;;;;;5091212;28;20280;-71
2023/04/19 01:43:13;;;;;;;35.37;27.90;;;9.00;99.90;;;;;;5093037;28;20566;-71
2023/04/19 01:45:39;;;;;;;33.90;24.03;;;9.00;99.90;;;;;;5092554;28;20159;-71
2023/04/19 01:48:05;;;;;;;38.33;28.03;;;9.10;99.90;;;;;;5091735;28;20651;-71
2023/04/19 01:50:31;;;;;;;34.70;27.00;;;9.10;99.90;;;;;;5092616;28;20199;-71
2023/04/19 01:52:57;;;;;;;33.60;26.03;;;9.00;99.90;;;;;;5092972;28;20172;-71
2023/04/19 01:55:22;;;;;;;35.17;26.33;;;9.00;99.90;;;;;;5092535;28;20264;-71
2023/04/19 01:57:48;;;;;;;36.30;27.77;;;9.10;99.90;;;;;;5092852;28;20255;-71
2023/04/19 02:00:14;;;;;;;35.53;27.17;;;9.10;99.90;;;;;;5095292;28;20221;-71
2023/04/19 02:02:40;;;;;;;38.50;28.07;;;9.10;99.90;;;;;;5096936;28;20172;-71
2023/04/19 02:05:07;;;;;;;35.70;26.90;;;9.10;99.90;;;;;;5096663;28;20176;-71
2023/04/19 02:07:34;;;;;;;38.57;29.13;;;9.10;99.90;;;;;;5096527;28;20199;-71
2023/04/19 02:10:00;;;;;;;34.13;27.93;;;9.20;99.90;;;;;;5096388;28;20284;-71
2023/04/19 02:12:29;;;;;;;33.67;26.77;;;9.20;99.90;;;;;;5096793;28;20168;-71
2023/04/19 02:14:56;;;;;;;35.10;25.53;;;9.30;99.90;;;;;;5096549;28;20180;-71
2023/04/19 02:17:22;;;;;;;33.67;26.63;;;9.30;99.90;;;;;;5096338;28;20214;-71
2023/04/19 02:19:48;;;;;;;35.67;26.90;;;9.30;99.90;;;;;;5096699;28;20160;-71
2023/04/19 02:22:14;;;;;;;34.23;27.67;;;9.30;99.90;;;;;;5094955;28;20591;-73
2023/04/19 02:24:39;;;;;;;33.13;26.00;;;9.40;99.90;;;;;;5096281;28;20512;-71
2023/04/19 02:27:05;;;;;;;36.00;26.87;;;9.40;99.90;;;;;;5096186;28;20167;-71
2023/04/19 02:29:32;;;;;;;31.33;24.40;;;9.40;99.90;;;;;;5096095;28;20656;-71
2023/04/19 02:31:57;;;;;;;33.40;26.00;;;9.40;99.90;;;;;;5096101;28;20681;-71
2023/04/19 02:34:29;;;;;;;34.50;26.83;;;9.40;99.90;;;;;;5096181;28;20164;-71
2023/04/19 02:36:54;;;;;;;34.90;26.53;;;9.50;99.90;;;;;;5095756;28;20183;-71
2023/04/19 02:39:20;;;;;;;33.87;27.00;;;9.50;99.90;;;;;;5096057;28;20172;-70
2023/04/19 02:41:46;;;;;;;29.07;24.33;;;9.60;99.90;;;;;;5094251;28;20223;-70
2023/04/19 02:44:11;;;;;;;30.33;25.23;;;9.70;99.90;;;;;;5095611;28;20176;-71
2023/04/19 02:46:37;;;;;;;32.53;26.70;;;9.70;99.90;;;;;;5095686;28;20279;-71
2023/04/19 02:49:02;;;;;;;32.50;24.17;;;9.70;99.90;;;;;;5096038;28;20176;-72
2023/04/19 02:51:31;;;;;;;34.30;26.13;;;9.80;99.90;;;;;;5095344;28;20211;-71
2023/04/19 02:53:56;;;;;;;30.50;23.77;;;9.80;99.90;;;;;;5095711;28;20168;-71
2023/04/19 02:56:22;;;;;;;30.13;24.50;;;9.90;99.90;;;;;;5094103;28;20679;-71
2023/04/19 02:58:47;;;;;;;28.83;25.03;;;9.90;99.40;;;;;;5095491;28;20176;-71
2023/04/19 03:01:13;;;;;;;29.93;24.47;;;10.00;98.70;;;;;;5095501;28;20245;-71
2023/04/19 03:03:39;;;;;;;31.47;25.17;;;10.00;98.90;;;;;;5094325;28;20182;-71
2023/04/19 03:06:04;;;;;;;31.03;23.50;;;10.00;98.20;;;;;;5095166;28;20179;-71
2023/04/19 03:08:30;;;;;;;29.77;24.77;;;10.00;97.30;;;;;;5095478;28;20236;-71
2023/04/19 03:10:58;;;;;;;30.37;24.60;;;10.10;98.10;;;;;;5095059;28;20208;-71
2023/04/19 03:13:24;;;;;;;32.73;24.80;;;10.10;97.00;;;;;;5095279;28;20251;-72
2023/04/19 03:15:49;;;;;;;31.30;25.60;;;10.10;97.20;;;;;;5095141;28;20262;-72
2023/04/19 03:18:18;;;;;;;31.10;24.10;;;10.10;97.70;;;;;;5094199;28;20176;-71
2023/04/19 03:20:43;;;;;;;28.27;24.37;;;10.10;96.30;;;;;;5095007;28;20168;-70
2023/04/19 03:23:09;;;;;;;28.87;22.80;;;10.20;95.40;;;;;;5094975;28;20589;-70
2023/04/19 03:25:35;;;;;;;27.87;23.97;;;10.20;95.20;;;;;;5094775;28;20650;-71
2023/04/19 03:28:01;;;;;;;28.43;22.67;;;10.20;95.80;;;;;;5093829;28;20203;-71
2023/04/19 03:30:26;;;;;;;28.20;22.73;;;10.20;94.20;;;;;;5095086;28;20599;-72
2023/04/19 03:32:52;;;;;;;30.93;24.73;;;10.20;95.00;;;;;;5093661;28;20654;-71
2023/04/19 03:35:24;;;;;;;28.77;23.07;;;10.10;96.10;;;;;;5094642;28;20236;-72
2023/04/19 03:37:53;;;;;;;27.80;20.90;;;10.20;95.50;;;;;;5094540;28;20217;-72
2023/04/19 03:40:19;;;;;;;29.60;24.13;;;10.20;94.70;;;;;;5094152;28;20372;-70
2023/04/19 03:42:44;;;;;;;29.07;23.80;;;10.20;96.00;;;;;;5094804;28;20639;-71
2023/04/19 03:45:10;;;;;;;29.37;24.00;;;10.10;96.70;;;;;;5094391;28;20194;-71
2023/04/19 03:47:36;;;;;;;30.20;23.30;;;10.10;97.90;;;;;;5094467;28;20530;-71
2023/04/19 03:50:05;;;;;;;28.97;22.93;;;10.10;98.90;;;;;;5094488;28;20581;-72
2023/04/19 03:52:30;;;;;;;31.63;23.07;;;10.00;99.90;;;;;;5093820;28;20176;-70
2023/04/19 03:54:56;;;;;;;32.20;24.97;;;10.00;99.90;;;;;;5093744;28;20657;-71
2023/04/19 03:57:21;;;;;;;31.87;24.23;;;10.00;99.90;;;;;;5092689;28;20175;-71
2023/04/19 03:59:47;;;;;;;29.50;23.73;;;10.00;99.90;;;;;;5094582;28;20164;-71
2023/04/19 04:02:15;;;;;;;31.50;24.67;;;10.00;99.90;;;;;;5094055;28;20651;-71
2023/04/19 04:04:41;;;;;;;28.90;23.00;;;10.00;99.90;;;;;;5093728;28;20229;-70
2023/04/19 04:07:07;;;;;;;30.87;22.97;;;9.90;99.90;;;;;;5093782;28;20526;-73
2023/04/19 04:09:32;;;;;;;31.77;24.43;;;9.90;99.90;;;;;;5093375;28;20160;-71
2023/04/19 04:11:58;;;;;;;31.47;23.97;;;9.90;99.90;;;;;;5093611;28;20261;-72
2023/04/19 04:14:23;;;;;;;27.83;23.13;;;9.90;99.90;;;;;;5093499;28;20190;-72
2023/04/19 04:16:49;;;;;;;28.60;23.50;;;9.80;99.90;;;;;;5093643;28;20285;-71
2023/04/19 04:19:15;;;;;;;29.83;22.93;;;9.90;99.90;;;;;;5093970;28;20175;-72
2023/04/19 04:21:41;;;;;;;28.50;22.93;;;9.80;99.90;;;;;;5091778;28;20164;-70
2023/04/19 04:24:07;;;;;;;32.13;24.53;;;9.80;99.90;;;;;;5093662;28;20168;-71
2023/04/19 04:26:38;;;;;;;30.83;23.53;;;9.90;99.90;;;;;;5092051;28;20186;-71
2023/04/19 04:29:04;;;;;;;29.30;22.93;;;9.80;99.90;;;;;;5093794;28;20252;-71
2023/04/19 04:31:30;;;;;;;31.77;23.33;;;9.80;99.90;;;;;;5093535;28;20203;-71
2023/04/19 04:33:56;;;;;;;33.67;24.63;;;9.80;99.90;;;;;;5093434;28;20175;-71
2023/04/19 04:36:28;;;;;;;32.33;25.23;;;9.80;99.90;;;;;;5093606;28;20556;-71
2023/04/19 04:38:54;;;;;;;31.67;23.97;;;9.80;99.90;;;;;;5092987;28;20172;-71
2023/04/19 04:41:19;;;;;;;34.90;24.33;;;9.80;99.90;;;;;;5092888;28;20235;-71
2023/04/19 04:43:48;;;;;;;31.27;24.07;;;9.80;99.90;;;;;;5092755;28;20164;-71
2023/04/19 04:46:14;;;;;;;35.43;24.93;;;9.80;99.90;;;;;;5093442;28;20160;-71
2023/04/19 04:48:39;;;;;;;34.20;24.80;;;9.70;99.90;;;;;;5093386;28;20233;-71
2023/04/19 04:51:05;;;;;;;31.33;25.17;;;9.80;99.90;;;;;;5092882;28;20204;-71
2023/04/19 04:53:30;;;;;;;31.70;23.87;;;9.80;99.90;;;;;;5092389;28;20246;-70
2023/04/19 04:55:56;;;;;;;31.10;23.90;;;9.80;99.90;;;;;;5093323;28;20502;-71
2023/04/19 04:58:22;;;;;;;34.43;23.97;;;9.80;99.90;;;;;;5092938;28;20165;-71
2023/04/19 05:00:56;;;;;;;32.27;24.13;;;9.90;99.90;;;;;;5092746;28;20659;-72
2023/04/19 05:03:22;;;;;;;31.40;23.97;;;9.90;99.90;;;;;;5092578;28;20168;-71
2023/04/19 05:05:48;;;;;;;33.33;23.40;;;10.10;99.90;;;;;;5092623;28;20168;-70
2023/04/19 05:08:13;;;;;;;33.03;24.23;;;10.20;99.90;;;;;;5091632;28;20176;-72
2023/04/19 05:10:39;;;;;;;31.13;23.47;;;10.40;99.90;;;;;;5090860;28;20203;-72
2023/04/19 05:13:05;;;;;;;28.03;21.67;;;10.70;98.20;;;;;;5092325;28;20530;-72
2023/04/19 05:15:30;;;;;;;32.87;23.30;;;10.90;93.20;;;;;;5091424;28;20187;-73
2023/04/19 05:17:59;;;;;;;31.20;22.70;;;11.10;88.20;;;;;;5092175;28;20652;-72
2023/04/19 05:20:32;;;;;;;28.53;22.70;;;11.30;73.90;;;;;;5091209;28;20726;-73
2023/04/19 05:23:02;;;;;;;27.13;22.37;;;11.50;70.30;;;;;;5092537;28;20214;-74
2023/04/19 05:25:28;;;;;;;31.33;22.73;;;11.80;59.30;;;;;;5091870;28;20228;-75
2023/04/19 05:27:54;;;;;;;32.43;23.07;;;12.00;46.10;;;;;;5092453;28;20632;-74
2023/04/19 05:30:20;;;;;;;31.87;22.97;;;12.10;42.50;;;;;;5091880;28;20264;-74
2023/04/19 05:32:45;;;;;;;29.30;22.97;;;12.30;37.80;;;;;;5092253;28;20168;-73
2023/04/19 05:35:11;;;;;;;27.70;22.07;;;12.70;25.90;;;;;;5094863;28;20547;-72
2023/04/19 05:37:38;;;;;;;23.87;18.67;;;13.00;14.10;;;;;;5096187;28;20171;-73
2023/04/19 05:40:04;;;;;;;29.83;21.77;;;12.90;10.50;;;;;;5096133;28;20172;-73
2023/04/19 05:42:30;;;;;;;26.03;20.63;;;12.90;15.60;;;;;;5096104;28;20622;-75
2023/04/19 05:44:56;;;;;;;27.07;20.77;;;13.00;12.80;;;;;;5096063;28;20203;-74
2023/04/19 05:47:21;;;;;;;27.20;21.67;;;13.50;6.30;;;;;;5095871;28;20646;-73
2023/04/19 05:49:47;;;;;;;25.10;21.73;;;13.80;1.00;;;;;;5096247;28;20168;-74
2023/04/19 05:52:12;;;;;;;24.67;20.37;;;14.20;1.00;;;;;;5095752;28;20172;-74
2023/04/19 05:54:38;;;;;;;27.43;21.87;;;13.50;1.00;;;;;;5095811;28;20633;-74
2023/04/19 05:57:04;;;;;;;27.57;22.73;;;13.10;8.20;;;;;;5095796;28;20191;-73
2023/04/19 05:59:29;;;;;;;24.67;22.03;;;13.30;14.50;;;;;;5094900;28;20262;-75
2023/04/19 06:01:55;;;;;;;29.23;21.97;;;13.10;11.00;;;;;;5095638;28;20168;-73
2023/04/19 06:04:21;;;;;;;30.43;21.97;;;12.80;24.80;;;;;;5095407;28;20174;-73
2023/04/19 06:06:46;;;;;;;28.30;22.70;;;12.60;31.00;;;;;;5095558;28;20175;-75
2023/04/19 06:09:17;;;;;;;31.50;22.67;;;12.90;23.40;;;;;;5095077;28;20259;-75
2023/04/19 06:11:43;;;;;;;25.37;19.80;;;13.50;10.80;;;;;;5095660;28;20285;-74
2023/04/19 06:14:10;;;;;;;27.63;21.93;;;13.60;1.00;;;;;;5095347;28;20200;-73
2023/04/19 06:16:35;;;;;;;32.73;23.77;;;13.10;11.00;;;;;;5095991;28;20172;-73
2023/04/19 06:19:01;;;;;;;30.60;23.60;;;12.60;26.00;;;;;;5094937;28;20527;-73
2023/04/19 06:21:30;;;;;;;31.57;24.23;;;12.10;45.00;;;;;;5093883;28;20885;-72
2023/04/19 06:23:55;;;;;;;32.27;23.43;;;11.70;63.70;;;;;;5093940;28;20203;-72
2023/04/19 06:26:21;;;;;;;29.37;21.67;;;11.60;70.90;;;;;;5093848;28;20571;-73
2023/04/19 06:28:49;;;;;;;28.07;23.30;;;11.50;81.50;;;;;;5095328;28;20675;-74
2023/04/19 06:31:15;;;;;;;31.37;23.53;;;11.50;88.50;;;;;;5093776;28;20225;-71
2023/04/19 06:33:40;;;;;;;28.67;23.37;;;11.70;83.20;;;;;;5093741;28;20168;-73
2023/04/19 06:36:09;;;;;;;28.57;21.50;;;11.70;81.00;;;;;;5094215;28;20200;-74
2023/04/19 06:38:38;;;;;;;27.73;21.97;;;11.60;78.60;;;;;;5096363;28;20698;-72
2023/04/19 06:41:04;;;;;;;28.27;21.47;;;11.70;80.60;;;;;;5115261;28;20238;-73
2023/04/19 06:43:30;;;;;;;30.90;22.33;;;11.70;80.30;;;;;;5114673;28;20243;-73
2023/04/19 06:45:59;;;;;;;30.10;22.20;;;11.90;78.60;;;;;;5114914;28;20176;-73
2023/04/19 06:48:27;;;;;;;29.50;22.60;;;11.80;82.50;;;;;;5095996;28;20183;-72
2023/04/19 06:50:54;;;;;;;28.27;21.37;;;12.20;88.60;;;;;;5095108;28;20210;-75
2023/04/19 06:53:19;;;;;;;26.97;20.77;;;13.10;32.90;;;;;;5094667;28;20172;-73
2023/04/19 06:55:45;;;;;;;24.27;20.07;;;13.30;25.20;;;;;;5094438;28;20622;-74
2023/04/19 06:58:11;;;;;;;25.97;21.10;;;13.00;31.00;;;;;;5094267;28;20168;-75
2023/04/19 07:00:39;;;;;;;29.17;21.70;;;13.20;32.70;;;;;;5094064;28;20703;-73
2023/04/19 07:03:05;;;;;;;25.47;19.00;;;13.00;30.10;;;;;;5094578;28;20175;-74
2023/04/19 07:05:31;;;;;;;25.57;20.67;;;13.20;30.60;;;;;;5094923;28;20180;-75
2023/04/19 07:07:57;;;;;;;24.60;20.17;;;13.50;23.40;;;;;;5094401;28;20602;-73
2023/04/19 07:10:25;;;;;;;23.83;19.93;;;13.50;20.70;;;;;;5094700;28;20246;-74
2023/04/19 07:12:51;;;;;;;26.10;19.90;;;13.00;32.20;;;;;;5094289;28;20172;-73
2023/04/19 07:15:17;;;;;;;24.80;19.63;;;13.10;33.60;;;;;;5093937;28;20281;-74
2023/04/19 07:17:43;;;;;;;23.43;19.60;;;13.00;37.00;;;;;;5094488;28;20513;-73
2023/04/19 07:20:08;;;;;;;24.73;19.10;;;13.20;29.80;;;;;;5094271;28;20200;-74
2023/04/19 07:22:34;;;;;;;23.30;17.97;;;13.20;26.40;;;;;;5094458;28;20175;-75
2023/04/19 07:25:00;;;;;;;20.53;16.90;;;13.10;29.40;;;;;;5094626;28;20174;-74
2023/04/19 07:27:26;;;;;;;22.13;17.03;;;13.70;13.80;;;;;;5087597;28;20528;-73
2023/04/19 07:29:52;;;;;;;22.87;19.00;;;13.90;4.30;;;;;;5091796;28;20537;-74
2023/04/19 07:32:18;;;;;;;23.07;17.87;;;13.70;15.60;;;;;;5092722;28;20175;-75
2023/04/19 07:34:44;;;;;;;22.57;17.67;;;13.50;20.20;;;;;;5093626;28;20191;-78
2023/04/19 07:37:13;;;;;;;20.63;18.40;;;13.80;11.80;;;;;;5093659;28;20203;-77
2023/04/19 07:39:41;;;;;;;22.80;18.33;;;13.80;12.10;;;;;;5093210;28;20172;-77
2023/04/19 07:42:07;;;;;;;18.97;14.80;;;14.30;4.60;;;;;;5093594;28;20228;-76
2023/04/19 07:44:33;;;;;;;20.53;16.67;;;15.20;1.00;;;;;;5093534;28;20163;-75
2023/04/19 07:46:58;;;;;;;19.73;17.17;;;16.20;1.00;;;;;;5092951;28;20196;-77
2023/04/19 07:49:24;;;;;;;18.97;15.77;;;16.80;1.00;;;;;;5092590;28;20186;-74
2023/04/19 07:51:50;;;;;;;19.77;15.17;;;17.20;1.00;;;;;;5093478;28;20290;-77
2023/04/19 07:54:16;;;;;;;19.92;15.75;;;17.60;1.00;;;;;;5092131;28;20660;-78
2023/04/19 07:56:42;;;;;;;17.35;15.55;;;17.90;1.00;;;;;;5092525;28;20168;-77
2023/04/19 07:59:07;;;;;;;17.57;14.77;;;17.40;1.00;;;;;;5093486;28;20238;-78
2023/04/19 08:01:33;;;;;;;18.30;16.33;;;17.50;1.00;;;;;;5091352;28;20175;-77
2023/04/19 08:03:59;;;;;;;18.55;15.93;;;18.40;1.00;;;;;;5092128;28;20203;-77
2023/04/19 08:06:29;;;;;;;16.35;14.73;;;19.60;1.00;;;;;;5092439;28;20171;-76
2023/04/19 08:08:55;;;;;;;16.33;14.52;;;19.30;99.90;;;;;;5093336;28;20167;-76
2023/04/19 08:11:21;;;;;;;15.15;13.68;;;19.40;1.00;;;;;;5091958;28;20208;-77
2023/04/19 08:13:46;;;;;;;15.68;14.10;;;19.20;1.00;;;;;;5092888;28;20168;-80
2023/04/19 08:16:12;;;;;;;15.35;12.88;;;18.90;99.90;;;;;;5093113;28;20642;-75
2023/04/19 08:18:37;;;;;;;17.58;14.90;;;18.00;99.90;;;;;;5077302;28;20562;-75
2023/04/19 08:21:03;;;;;;;17.70;15.05;;;18.40;99.90;;;;;;5083617;28;20655;-73
2023/04/19 08:23:29;;;;;;;16.95;13.77;;;18.90;1.00;;;;;;5072621;28;20161;-74
2023/04/19 08:25:55;;;;;;;14.57;12.98;;;18.50;1.00;;;;;;5072477;28;20248;-75
2023/04/19 08:28:20;;;;;;;14.85;13.43;;;17.50;1.00;;;;;;5070911;28;20183;-76
2023/04/19 08:30:49;;;;;;;15.63;12.77;;;18.00;1.00;;;;;;5076871;28;20208;-76
2023/04/19 08:33:14;;;;;;;13.55;11.65;;;17.70;1.00;;;;;;5071739;28;20169;-74
2023/04/19 08:35:41;;;;;;;14.10;12.20;;;17.20;1.00;;;;;;5071492;28;20200;-78
2023/04/19 08:38:07;;;;;;;15.93;14.23;;;16.40;1.00;;;;;;5070669;28;20192;-76
2023/04/19 08:40:33;;;;;;;16.73;12.67;;;16.70;1.00;;;;;;5071899;28;20216;-76
2023/04/19 08:43:08;;;;;;;14.95;13.35;;;17.40;1.00;;;;;;5091840;28;20247;-75
2023/04/19 08:45:35;;;;;;;16.00;12.75;;;18.10;99.90;;;;;;5090959;28;20178;-75
2023/04/19 08:48:01;;;;;;;14.90;13.30;;;18.40;99.90;;;;;;5092668;28;20164;-74
2023/04/19 08:50:28;;;;;;;15.57;13.20;;;19.20;1.00;;;;;;5089074;28;20205;-72
2023/04/19 08:52:53;;;;;;;17.33;13.85;;;19.20;12.90;;;;;;5087603;28;20184;-71
2023/04/19 08:55:19;;;;;;;15.05;13.23;;;18.60;99.90;;;;;;5090749;28;20236;-71
2023/04/19 08:57:45;;;;;;;14.48;11.90;;;19.00;1.00;;;;;;5081041;28;20290;-76
2023/04/19 09:00:11;;;;;;;14.90;11.70;;;19.50;5.00;;;;;;5092029;28;20179;-76
2023/04/19 09:02:50;;;;;;;13.27;11.98;;;19.10;99.90;;;;;;5092175;28;20278;-76
2023/04/19 09:05:17;;;;;;;16.98;13.63;;;18.30;1.00;;;;;;5074529;28;20179;-78
2023/04/19 09:07:46;;;;;;;14.65;12.52;;;17.80;99.90;;;;;;5092118;28;20172;-76
2023/04/19 09:10:24;;;;;;;12.55;11.32;;;18.60;1.00;;;;;;5091638;28;20272;-80
2023/04/19 09:13:07;;;;;;;14.13;12.68;;;18.90;1.00;;;;;;5092504;28;20201;-79
2023/04/19 09:15:40;;;;;;;13.00;11.73;;;19.50;99.90;;;;;;5092324;28;20650;-82
2023/04/19 09:18:09;;;;;;;12.73;11.38;;;19.60;1.00;;;;;;5091862;28;20172;-74
2023/04/19 09:20:40;;;;;;;15.57;12.75;;;18.80;1.00;;;;;;5090659;28;20615;-76
2023/04/19 09:23:08;;;;;;;12.38;11.10;;;19.20;1.00;;;;;;5071826;28;20180;-76
2023/04/19 09:25:34;;;;;;;13.35;11.77;;;19.50;1.00;;;;;;5072004;28;20210;-81
2023/04/19 09:28:15;;;;;;;12.43;10.88;;;19.40;1.00;;;;;;5071772;28;20172;-75
2023/04/19 09:30:41;;;;;;;13.00;11.40;;;19.80;99.90;;;;;;5071569;28;20200;-75
2023/04/19 09:33:07;;;;;;;12.80;11.50;;;19.90;1.00;;;;;;5072051;28;20505;-71
2023/04/19 09:35:41;;;;;;;12.25;10.77;;;19.80;1.00;;;;;;5071413;28;20200;-74
2023/04/19 09:38:06;;;;;;;12.52;10.80;;;19.80;99.90;;;;;;5072026;28;20163;-75
2023/04/19 09:40:36;;;;;;;11.40;10.40;;;19.20;1.00;;;;;;5071193;28;20240;-77
2023/04/19 09:43:02;;;;;;;10.40;9.30;;;18.80;1.00;;;;;;5071461;28;20247;-78
2023/04/19 09:45:44;;;;;;;12.25;11.05;;;18.40;1.00;;;;;;5072053;28;20162;-73
2023/04/19 09:48:13;;;;;;;13.18;11.77;;;17.50;1.00;;;;;;5071202;28;20222;-75
2023/04/19 09:50:53;;;;;;;11.82;10.70;;;17.20;99.90;;;;;;5071580;28;20227;-75
2023/04/19 09:53:20;;;;;;;13.43;10.55;;;18.00;1.00;;;;;;5071358;28;20184;-79
2023/04/19 09:55:46;;;;;;;10.18;9.38;;;19.00;1.00;;;;;;5069946;28;20180;-77
2023/04/19 09:58:13;;;;;;;11.80;10.60;;;18.40;93.20;;;;;;5080981;28;20203;-74
2023/04/19 10:00:41;;;;;;;12.27;11.02;;;17.50;99.90;;;;;;5071333;28;20675;-76
2023/04/19 10:03:08;;;;;;;10.13;9.13;;;17.50;99.90;;;;;;5070230;28;20256;-75
2023/04/19 10:05:38;;;;;;;11.13;10.23;;;17.40;99.90;;;;;;5069492;28;20207;-75
2023/04/19 10:08:10;;;;;;;10.73;9.70;;;17.30;99.90;;;;;;5071740;28;20600;-79
2023/04/19 10:10:40;;;;;;;13.33;9.13;;;17.30;99.90;;;;;;5070565;28;20208;-73
2023/04/19 10:13:11;;;;;;;11.85;10.77;;;18.30;1.00;;;;;;5071450;28;20204;-76
2023/04/19 10:15:37;;;;;;;9.80;9.00;;;18.40;99.90;;;;;;5070308;28;20279;-76
2023/04/19 10:18:04;;;;;;;10.77;9.70;;;19.30;1.00;;;;;;5071178;28;20169;-77
2023/04/19 10:20:40;;;;;;;9.50;8.60;;;18.80;99.90;;;;;;5073110;28;20163;-77
2023/04/19 10:23:08;;;;;;;10.93;9.88;;;19.80;1.00;;;;;;5077454;28;20647;-67
2023/04/19 10:25:37;;;;;;;10.30;9.50;;;20.10;1.00;;;;;;5091783;28;20202;-70
2023/04/19 10:28:03;;;;;;;10.20;9.38;;;19.90;1.00;;;;;;5074780;28;20197;-71
2023/04/19 10:30:29;;;;;;;10.38;9.27;;;20.00;1.00;;;;;;5075106;28;20219;-71
2023/04/19 10:33:01;;;;;;;10.15;9.18;;;19.80;99.90;;;;;;5074514;28;20204;-70
2023/04/19 10:35:33;;;;;;;13.43;9.35;;;19.40;1.00;;;;;;5075930;28;20208;-74
2023/04/19 10:38:15;;;;;;;10.57;9.68;;;17.90;1.00;;;;;;5074901;28;20172;-76
2023/04/19 10:41:00;;;;;;;9.70;8.65;;;18.40;99.90;;;;;;5075621;28;20273;-71
2023/04/19 10:43:28;;;;;;;10.10;9.30;;;19.30;99.90;;;;;;5079555;28;21004;-71
2023/04/19 10:46:05;;;;;;;11.55;10.15;;;18.70;99.90;;;;;;5074664;28;20204;-73
2023/04/19 10:48:32;;;;;;;9.90;9.02;;;17.80;1.00;;;;;;5075245;28;20165;-71
2023/04/19 10:51:06;;;;;;;10.20;8.68;;;18.30;1.00;;;;;;5074099;28;20204;-71
2023/04/19 10:53:49;;;;;;;7.22;6.53;;;18.80;1.00;;;;;;5073027;28;20169;-70
2023/04/19 10:56:17;;;;;;;9.07;8.18;;;18.30;99.90;;;;;;5082571;28;20180;-70
2023/04/19 10:59:20;;;;;;;8.52;7.43;;;18.10;1.00;;;;;;5094552;28;20243;-69
2023/04/19 11:01:54;;;;;;;9.05;8.15;;;17.70;1.00;;;;;;5031677;28;20189;-70
2023/04/19 11:04:30;;;;;;;9.82;8.25;;;18.10;1.00;;;;;;5032691;28;20166;-70
2023/04/19 11:07:03;;;;;;;8.10;7.28;;;17.40;1.00;;;;;;5032256;28;20189;-70
2023/04/19 11:09:30;;;;;;;11.23;8.88;;;17.50;1.00;;;;;;5031909;28;20181;-70
2023/04/19 11:12:15;;;;;;;7.33;6.63;;;17.00;1.00;;;;;;5031919;28;20218;-70
2023/04/19 11:14:50;;;;;;;10.27;8.13;;;17.10;1.00;;;;;;5032318;28;20273;-70
2023/04/19 11:17:26;;;;;;;8.32;7.53;;;17.50;1.00;;;;;;5032208;28;20191;-72
2023/04/19 11:20:10;;;;;;;8.65;7.90;;;18.00;99.90;;;;;;5031970;28;20277;-69
2023/04/19 11:22:41;;;;;;;9.38;7.82;;;18.50;1.00;;;;;;5031620;28;20178;-68
2023/04/19 11:25:20;;;;;;;8.93;7.63;;;17.60;1.00;;;;;;5029084;28;20198;-67
2023/04/19 11:27:56;;;;;;;9.23;8.27;;;17.30;1.00;;;;;;5030364;28;20296;-68
2023/04/19 11:30:28;;;;;;;8.30;7.60;;;17.40;99.90;;;;;;5031721;28;20312;-69
2023/04/19 11:32:55;;;;;;;8.00;7.30;;;17.40;1.00;;;;;;5026814;28;20178;-69
2023/04/19 11:35:26;;;;;;;8.10;7.30;;;18.40;1.00;;;;;;5030123;28;20210;-70
2023/04/19 11:37:53;;;;;;;9.13;8.20;;;18.10;1.00;;;;;;5034638;28;20218;-70
2023/04/19 11:40:20;;;;;;;8.75;7.07;;;17.80;1.00;;;;;;5092857;28;20239;-70
2023/04/19 11:42:54;;;;;;;8.83;8.10;;;17.30;1.00;;;;;;5093191;28;20251;-70
2023/04/19 11:45:31;;;;;;;9.97;8.70;;;16.80;1.00;;;;;;5093757;28;20244;-72
2023/04/19 11:47:57;;;;;;;9.93;8.48;;;16.90;99.90;;;;;;5094237;28;20267;-69
2023/04/19 11:50:35;;;;;;;9.57;8.60;;;17.30;99.90;;;;;;5085315;28;20878;-71
2023/04/19 11:53:21;;;;;;;13.70;9.32;;;17.30;1.00;;;;;;5089468;28;20646;-72
2023/04/19 11:55:56;;;;;;;9.43;7.90;;;17.30;99.90;;;;;;5093137;28;20172;-73
2023/04/19 11:58:47;;;;;;;9.77;8.77;;;17.20;1.00;;;;;;5092323;28;20175;-72
2023/04/19 12:01:15;;;;;;;11.23;9.97;;;17.20;99.90;;;;;;5093304;28;20168;-70
2023/04/19 12:03:46;;;;;;;10.17;9.00;;;17.10;99.90;;;;;;5092971;28;20221;-72
2023/04/19 12:06:26;;;;;;;10.10;9.00;;;17.30;99.90;;;;;;5091764;28;20176;-70
2023/04/19 12:08:54;;;;;;;11.27;9.20;;;17.30;99.90;;;;;;5092693;28;20172;-74
2023/04/19 12:11:23;;;;;;;12.87;9.57;;;17.50;1.00;;;;;;5092716;28;20347;-73
2023/04/19 12:14:10;;;;;;;8.77;7.97;;;17.70;99.90;;;;;;5094063;28;20159;-72
2023/04/19 12:16:36;;;;;;;9.30;8.40;;;17.50;99.90;;;;;;5093361;28;20171;-69
2023/04/19 12:19:16;;;;;;;9.43;8.10;;;17.60;99.90;;;;;;5093426;28;20172;-73
2023/04/19 12:21:42;;;;;;;11.83;8.10;;;17.50;1.00;;;;;;5090791;28;20312;-73
2023/04/19 12:24:07;;;;;;;11.53;8.73;;;17.70;1.00;;;;;;5092646;28;20181;-72
2023/04/19 12:26:33;;;;;;;11.10;7.53;;;17.40;1.00;;;;;;5092866;28;20171;-70
2023/04/19 12:29:06;;;;;;;8.93;7.93;;;17.50;1.00;;;;;;5093169;28;20168;-71
2023/04/19 12:31:32;;;;;;;8.87;7.40;;;17.60;1.00;;;;;;5092718;28;20207;-72
2023/04/19 12:33:57;;;;;;;8.10;7.30;;;17.40;99.90;;;;;;5092843;28;20191;-72
2023/04/19 12:36:23;;;;;;;6.93;6.23;;;17.30;95.30;;;;;;5091830;28;20206;-72
2023/04/19 12:38:49;;;;;;;9.27;7.23;;;17.10;77.80;;;;;;5090220;28;20217;-72